createdAt,value
2018-03-06T00:00:49.719Z,0
2018-03-06T00:01:51.517Z,0
2018-03-06T00:02:49.450Z,0
2018-03-06T00:03:49.741Z,0
2018-03-06T00:04:49.184Z,0
2018-03-06T00:05:50.197Z,0
2018-03-06T00:06:49.180Z,0
2018-03-06T00:07:49.497Z,0
2018-03-06T00:08:49.804Z,0
2018-03-06T00:09:51.027Z,0
2018-03-06T00:10:49.820Z,0
2018-03-06T00:11:49.851Z,0
2018-03-06T00:12:49.866Z,0
2018-03-06T00:13:51.021Z,0
2018-03-06T00:14:49.569Z,0
2018-03-06T00:15:49.612Z,0
2018-03-06T00:16:49.990Z,0
2018-03-06T00:17:51.553Z,0
2018-03-06T00:18:49.675Z,0
2018-03-06T00:19:49.949Z,0
2018-03-06T00:20:49.963Z,0
2018-03-06T00:21:49.382Z,0
2018-03-06T00:22:50.144Z,0
2018-03-06T00:23:50.153Z,0
2018-03-06T00:24:51.294Z,0
2018-03-06T00:25:49.697Z,0
2018-03-06T00:26:50.050Z,0
2018-03-06T00:27:52.517Z,0
2018-03-06T00:28:49.428Z,0
2018-03-06T00:29:49.765Z,0
2018-03-06T00:30:49.777Z,0
2018-03-06T00:31:50.128Z,0
2018-03-06T00:32:49.785Z,0
2018-03-06T00:33:49.485Z,0
2018-03-06T00:34:50.103Z,0
2018-03-06T00:35:52.547Z,0
2018-03-06T00:36:49.817Z,0
2018-03-06T00:37:49.599Z,0
2018-03-06T00:38:49.563Z,0
2018-03-06T00:39:51.319Z,0
2018-03-06T00:40:49.265Z,0
2018-03-06T00:41:49.887Z,0
2018-03-06T00:42:52.853Z,0
2018-03-06T00:43:49.594Z,0
2018-03-06T00:44:49.928Z,0
2018-03-06T00:45:51.672Z,0
2018-03-06T00:46:49.940Z,0
2018-03-06T00:47:50.295Z,0
2018-03-06T00:48:49.956Z,0
2018-03-06T00:49:49.657Z,0
2018-03-06T00:50:49.975Z,0
2018-03-06T00:51:49.995Z,0
2018-03-06T00:52:50.418Z,0
2018-03-06T00:53:50.011Z,0
2018-03-06T00:54:49.723Z,0
2018-03-06T00:55:52.245Z,0
2018-03-06T00:56:50.025Z,0
2018-03-06T00:57:50.096Z,0
2018-03-06T00:58:50.059Z,0
2018-03-06T00:59:51.392Z,0
2018-03-06T01:00:50.378Z,0
2018-03-06T01:01:50.128Z,0
2018-03-06T01:02:51.639Z,0
2018-03-06T01:03:50.146Z,0
2018-03-06T01:04:49.831Z,0
2018-03-06T01:05:50.128Z,0
2018-03-06T01:06:51.759Z,0
2018-03-06T01:07:50.520Z,0
2018-03-06T01:08:49.883Z,0
2018-03-06T01:09:50.499Z,0
2018-03-06T01:10:52.818Z,0
2018-03-06T01:11:50.512Z,0
2018-03-06T01:12:50.265Z,0
2018-03-06T01:13:53.378Z,0
2018-03-06T01:14:49.926Z,0
2018-03-06T01:15:50.532Z,0
2018-03-06T01:16:50.556Z,0
2018-03-06T01:17:52.435Z,0
2018-03-06T01:18:50.589Z,0
2018-03-06T01:20:03.017Z,0
2018-03-06T01:20:50.315Z,0
2018-03-06T01:21:51.823Z,0
2018-03-06T01:22:50.660Z,0
2018-03-06T01:23:50.320Z,0
2018-03-06T01:24:52.509Z,0
2018-03-06T01:25:50.345Z,0
2018-03-06T01:26:50.367Z,0
2018-03-06T01:27:50.705Z,0
2018-03-06T01:28:51.332Z,0
2018-03-06T01:29:50.101Z,0
2018-03-06T01:30:50.719Z,0
2018-03-06T01:31:50.613Z,0
2018-03-06T01:32:50.476Z,0
2018-03-06T01:33:50.445Z,0
2018-03-06T01:34:53.598Z,0
2018-03-06T01:35:50.160Z,0
2018-03-06T01:36:50.477Z,0
2018-03-06T01:37:52.577Z,0
2018-03-06T01:38:50.848Z,0
2018-03-06T01:39:50.784Z,0
2018-03-06T01:40:50.518Z,0
2018-03-06T01:41:52.275Z,0
2018-03-06T01:42:50.643Z,0
2018-03-06T01:43:50.875Z,0
2018-03-06T01:44:49.955Z,0
2018-03-06T01:45:50.562Z,0
2018-03-06T01:46:50.567Z,0
2018-03-06T01:47:52.486Z,0
2018-03-06T01:48:50.921Z,0
2018-03-06T01:49:50.936Z,0
2018-03-06T01:50:51.711Z,0
2018-03-06T01:51:51.458Z,0
2018-03-06T01:52:50.658Z,0
2018-03-06T01:53:50.340Z,0
2018-03-06T01:54:51.157Z,0
2018-03-06T01:55:50.960Z,0
2018-03-06T01:56:50.673Z,0
2018-03-06T01:57:52.265Z,0
2018-03-06T01:58:50.897Z,0
2018-03-06T01:59:50.715Z,0
2018-03-06T02:00:50.730Z,0
2018-03-06T02:01:52.628Z,0
2018-03-06T02:02:51.057Z,0
2018-03-06T02:03:50.513Z,0
2018-03-06T02:04:52.464Z,0
2018-03-06T02:05:50.783Z,0
2018-03-06T02:06:51.113Z,0
2018-03-06T02:07:51.107Z,0
2018-03-06T02:08:51.894Z,0
2018-03-06T02:09:50.804Z,0
2018-03-06T02:10:50.824Z,0
2018-03-06T02:11:51.548Z,0
2018-03-06T02:12:50.878Z,0
2018-03-06T02:13:51.247Z,0
2018-03-06T02:14:50.715Z,0
2018-03-06T02:15:53.431Z,0
2018-03-06T02:16:50.593Z,0
2018-03-06T02:17:51.200Z,0
2018-03-06T02:18:50.935Z,0
2018-03-06T02:19:53.485Z,0
2018-03-06T02:20:50.947Z,0
2018-03-06T02:21:50.964Z,0
2018-03-06T02:22:50.656Z,0
2018-03-06T02:23:52.636Z,0
2018-03-06T02:24:50.957Z,0
2018-03-06T02:25:51.292Z,0
2018-03-06T02:26:53.839Z,0
2018-03-06T02:27:51.015Z,0
2018-03-06T02:28:50.765Z,0
2018-03-06T02:29:51.010Z,0
2018-03-06T02:30:52.429Z,0
2018-03-06T02:31:51.086Z,0
2018-03-06T02:32:51.373Z,0
2018-03-06T02:33:50.772Z,0
2018-03-06T02:34:52.787Z,0
2018-03-06T02:35:51.379Z,0
2018-03-06T02:36:51.402Z,0
2018-03-06T02:37:51.990Z,0
2018-03-06T02:38:51.838Z,0
2018-03-06T02:39:51.165Z,0
2018-03-06T02:40:51.445Z,0
2018-03-06T02:41:51.792Z,0
2018-03-06T02:42:51.470Z,0
2018-03-06T02:43:51.182Z,0
2018-03-06T02:44:51.618Z,0
2018-03-06T02:45:51.509Z,0
2018-03-06T02:46:51.203Z,0
2018-03-06T02:47:51.202Z,0
2018-03-06T02:48:52.709Z,0
2018-03-06T02:49:51.536Z,0
2018-03-06T02:50:51.228Z,0
2018-03-06T02:51:50.959Z,0
2018-03-06T02:52:53.443Z,0
2018-03-06T02:53:51.318Z,0
2018-03-06T02:54:51.608Z,0
2018-03-06T02:55:52.666Z,0
2018-03-06T02:56:51.364Z,0
2018-03-06T02:57:51.688Z,0
2018-03-06T02:58:51.638Z,0
2018-03-06T02:59:50.740Z,0
2018-03-06T03:00:50.746Z,0
2018-03-06T03:01:51.535Z,0
2018-03-06T03:02:52.237Z,0
2018-03-06T03:03:51.735Z,0
2018-03-06T03:04:51.093Z,0
2018-03-06T03:05:51.392Z,0
2018-03-06T03:06:52.057Z,0
2018-03-06T03:07:51.427Z,0
2018-03-06T03:08:51.781Z,0
2018-03-06T03:09:51.149Z,0
2018-03-06T03:10:53.881Z,0
2018-03-06T03:11:51.759Z,0
2018-03-06T03:12:51.750Z,0
2018-03-06T03:13:52.654Z,0
2018-03-06T03:14:51.481Z,0
2018-03-06T03:15:51.487Z,0
2018-03-06T03:16:51.507Z,0
2018-03-06T03:17:53.998Z,0
2018-03-06T03:18:51.228Z,0
2018-03-06T03:19:51.237Z,0
2018-03-06T03:20:51.577Z,0
2018-03-06T03:21:53.118Z,0
2018-03-06T03:22:51.867Z,0
2018-03-06T03:23:51.886Z,0
2018-03-06T03:24:54.540Z,0
2018-03-06T03:25:51.916Z,0
2018-03-06T03:26:51.014Z,0
2018-03-06T03:27:52.477Z,0
2018-03-06T03:28:51.643Z,0
2018-03-06T03:29:51.662Z,0
2018-03-06T03:30:52.869Z,0
2018-03-06T03:31:52.970Z,0
2018-03-06T03:32:51.373Z,0
2018-03-06T03:33:52.016Z,0
2018-03-06T03:34:52.683Z,0
2018-03-06T03:35:51.102Z,0
2018-03-06T03:36:51.706Z,0
2018-03-06T03:37:54.415Z,0
2018-03-06T03:38:51.752Z,0
2018-03-06T03:39:52.035Z,0
2018-03-06T03:40:54.679Z,0
2018-03-06T03:41:52.072Z,0
2018-03-06T03:42:52.128Z,0
2018-03-06T03:43:53.835Z,0
2018-03-06T03:44:51.788Z,0
2018-03-06T03:45:51.500Z,0
2018-03-06T03:46:53.458Z,0
2018-03-06T03:47:52.148Z,0
2018-03-06T03:48:51.832Z,0
2018-03-06T03:49:52.405Z,0
2018-03-06T03:50:52.135Z,0
2018-03-06T03:51:51.567Z,0
2018-03-06T03:52:51.895Z,0
2018-03-06T03:53:54.535Z,0
2018-03-06T03:54:51.594Z,0
2018-03-06T03:55:52.259Z,0
2018-03-06T03:56:54.038Z,0
2018-03-06T03:57:51.617Z,0
2018-03-06T03:58:52.223Z,0
2018-03-06T03:59:51.961Z,0
2018-03-06T04:00:53.005Z,0
2018-03-06T04:01:51.976Z,0
2018-03-06T04:02:51.979Z,0
2018-03-06T04:03:54.886Z,0
2018-03-06T04:04:52.301Z,0
2018-03-06T04:05:52.594Z,0
2018-03-06T04:06:52.035Z,0
2018-03-06T04:07:52.320Z,0
2018-03-06T04:08:54.212Z,0
2018-03-06T04:09:52.057Z,0
2018-03-06T04:10:51.454Z,0
2018-03-06T04:11:52.065Z,0
2018-03-06T04:12:53.256Z,0
2018-03-06T04:13:52.382Z,0
2018-03-06T04:14:52.399Z,0
2018-03-06T04:15:54.959Z,0
2018-03-06T04:16:52.101Z,0
2018-03-06T04:17:52.431Z,0
2018-03-06T04:18:53.074Z,0
2018-03-06T04:19:53.292Z,0
2018-03-06T04:20:52.449Z,0
2018-03-06T04:21:51.863Z,0
2018-03-06T04:22:53.882Z,0
2018-03-06T04:23:52.178Z,0
2018-03-06T04:24:52.547Z,0
2018-03-06T04:25:53.851Z,0
2018-03-06T04:26:52.211Z,0
2018-03-06T04:27:52.254Z,0
2018-03-06T04:28:52.238Z,0
2018-03-06T04:29:54.716Z,0
2018-03-06T04:30:51.955Z,0
2018-03-06T04:31:51.987Z,0
2018-03-06T04:32:52.886Z,0
2018-03-06T04:33:52.297Z,0
2018-03-06T04:34:52.580Z,0
2018-03-06T04:35:52.944Z,0
2018-03-06T04:36:52.300Z,0
2018-03-06T04:37:52.041Z,0
2018-03-06T04:38:52.641Z,0
2018-03-06T04:39:53.765Z,0
2018-03-06T04:40:52.366Z,0
2018-03-06T04:41:52.068Z,0
2018-03-06T04:42:54.424Z,0
2018-03-06T04:43:52.396Z,0
2018-03-06T04:44:52.149Z,0
2018-03-06T04:45:52.432Z,0
2018-03-06T04:46:54.266Z,0
2018-03-06T04:47:52.115Z,0
2018-03-06T04:48:52.151Z,0
2018-03-06T04:49:53.160Z,0
2018-03-06T04:50:52.474Z,0
2018-03-06T04:51:52.462Z,0
2018-03-06T04:52:52.485Z,0
2018-03-06T04:53:52.978Z,0
2018-03-06T04:54:52.829Z,0
2018-03-06T04:55:52.845Z,0
2018-03-06T04:56:52.515Z,0
2018-03-06T04:57:54.650Z,0
2018-03-06T04:58:52.524Z,0
2018-03-06T04:59:52.537Z,0
2018-03-06T05:00:51.954Z,0
2018-03-06T05:01:52.934Z,0
2018-03-06T05:02:52.581Z,0
2018-03-06T05:03:52.907Z,0
2018-03-06T05:04:54.209Z,0
2018-03-06T05:05:52.925Z,0
2018-03-06T05:06:52.614Z,0
2018-03-06T05:07:52.319Z,0
2018-03-06T05:08:55.736Z,0
2018-03-06T05:09:52.662Z,0
2018-03-06T05:10:52.354Z,0
2018-03-06T05:11:54.199Z,0
2018-03-06T05:12:52.960Z,0
2018-03-06T05:13:52.742Z,0
2018-03-06T05:14:52.094Z,0
2018-03-06T05:15:52.396Z,0
2018-03-06T05:16:52.421Z,0
2018-03-06T05:17:54.707Z,0
2018-03-06T05:18:53.161Z,0
2018-03-06T05:19:52.440Z,0
2018-03-06T05:20:53.063Z,0
2018-03-06T05:21:55.670Z,0
2018-03-06T05:22:52.774Z,0
2018-03-06T05:23:52.796Z,0
2018-03-06T05:24:53.092Z,0
2018-03-06T05:25:53.132Z,0
2018-03-06T05:26:53.258Z,0
2018-03-06T05:27:52.540Z,4
2018-03-06T05:28:52.826Z,4
2018-03-06T05:29:54.339Z,4
2018-03-06T05:30:52.845Z,0
2018-03-06T05:31:52.872Z,4
2018-03-06T05:32:53.168Z,4
2018-03-06T05:33:54.411Z,8
2018-03-06T05:34:52.876Z,4
2018-03-06T05:35:52.344Z,8
2018-03-06T05:36:54.892Z,8
2018-03-06T05:37:52.606Z,8
2018-03-06T05:38:53.218Z,8
2018-03-06T05:39:53.226Z,12
2018-03-06T05:40:54.792Z,12
2018-03-06T05:41:52.355Z,12
2018-03-06T05:42:52.962Z,12
2018-03-06T05:43:52.676Z,16
2018-03-06T05:44:53.781Z,16
2018-03-06T05:45:53.057Z,20
2018-03-06T05:46:53.309Z,20
2018-03-06T05:47:52.710Z,24
2018-03-06T05:48:52.422Z,24
2018-03-06T05:49:53.050Z,28
2018-03-06T05:50:53.371Z,28
2018-03-06T05:51:53.864Z,28
2018-03-06T05:52:52.754Z,32
2018-03-06T05:53:52.792Z,32
2018-03-06T05:54:53.093Z,36
2018-03-06T05:55:53.870Z,36
2018-03-06T05:56:53.119Z,40
2018-03-06T05:57:52.511Z,44
2018-03-06T05:58:53.130Z,48
2018-03-06T05:59:54.056Z,52
2018-03-06T06:00:54.498Z,56
2018-03-06T06:01:53.478Z,60
2018-03-06T06:02:53.168Z,64
2018-03-06T06:03:55.973Z,64
2018-03-06T06:04:53.470Z,68
2018-03-06T06:05:53.513Z,68
2018-03-06T06:06:54.894Z,76
2018-03-06T06:07:53.269Z,76
2018-03-06T06:08:52.922Z,80
2018-03-06T06:09:52.948Z,84
2018-03-06T06:10:53.617Z,92
2018-03-06T06:11:54.401Z,96
2018-03-06T06:12:54.277Z,100
2018-03-06T06:13:52.957Z,100
2018-03-06T06:14:53.284Z,104
2018-03-06T06:15:53.257Z,108
2018-03-06T06:16:52.695Z,112
2018-03-06T06:17:53.415Z,116
2018-03-06T06:18:53.624Z,124
2018-03-06T06:19:53.011Z,132
2018-03-06T06:20:53.021Z,136
2018-03-06T06:21:53.647Z,144
2018-03-06T06:22:53.603Z,144
2018-03-06T06:23:53.045Z,152
2018-03-06T06:24:53.073Z,152
2018-03-06T06:25:53.070Z,156
2018-03-06T06:26:53.698Z,156
2018-03-06T06:27:53.370Z,160
2018-03-06T06:28:53.377Z,168
2018-03-06T06:29:53.674Z,176
2018-03-06T06:30:53.113Z,184
2018-03-06T06:31:53.135Z,188
2018-03-06T06:32:53.411Z,196
2018-03-06T06:33:53.584Z,200
2018-03-06T06:34:53.445Z,200
2018-03-06T06:35:53.735Z,204
2018-03-06T06:36:53.225Z,208
2018-03-06T06:37:53.476Z,216
2018-03-06T06:38:53.510Z,216
2018-03-06T06:39:53.835Z,220
2018-03-06T06:40:53.497Z,228
2018-03-06T06:41:53.550Z,228
2018-03-06T06:42:53.300Z,232
2018-03-06T06:43:53.377Z,244
2018-03-06T06:44:53.392Z,248
2018-03-06T06:45:53.541Z,256
2018-03-06T06:46:53.971Z,264
2018-03-06T06:47:53.279Z,268
2018-03-06T06:48:53.853Z,272
2018-03-06T06:49:53.580Z,280
2018-03-06T06:50:53.310Z,284
2018-03-06T06:51:53.598Z,288
2018-03-06T06:52:53.332Z,288
2018-03-06T06:53:53.931Z,288
2018-03-06T06:54:53.628Z,288
2018-03-06T06:55:53.360Z,284
2018-03-06T06:56:53.650Z,288
2018-03-06T06:57:53.938Z,288
2018-03-06T06:58:53.667Z,292
2018-03-06T06:59:53.689Z,296
2018-03-06T07:00:53.978Z,300
2018-03-06T07:01:54.045Z,304
2018-03-06T07:02:53.705Z,320
2018-03-06T07:03:54.058Z,324
2018-03-06T07:04:53.729Z,340
2018-03-06T07:05:54.028Z,348
2018-03-06T07:06:53.758Z,364
2018-03-06T07:07:54.032Z,372
2018-03-06T07:08:54.056Z,380
2018-03-06T07:09:53.781Z,388
2018-03-06T07:10:54.071Z,396
2018-03-06T07:11:53.513Z,400
2018-03-06T07:12:53.522Z,404
2018-03-06T07:13:54.104Z,408
2018-03-06T07:14:54.113Z,420
2018-03-06T07:15:53.887Z,428
2018-03-06T07:16:53.846Z,436
2018-03-06T07:17:54.144Z,448
2018-03-06T07:18:53.866Z,452
2018-03-06T07:19:53.928Z,456
2018-03-06T07:20:53.603Z,460
2018-03-06T07:21:53.669Z,460
2018-03-06T07:22:53.903Z,468
2018-03-06T07:23:53.928Z,476
2018-03-06T07:24:54.210Z,480
2018-03-06T07:25:53.937Z,496
2018-03-06T07:26:53.992Z,500
2018-03-06T07:27:54.246Z,516
2018-03-06T07:28:53.400Z,528
2018-03-06T07:29:54.257Z,540
2018-03-06T07:30:53.438Z,548
2018-03-06T07:31:54.438Z,552
2018-03-06T07:32:54.006Z,560
2018-03-06T07:33:54.013Z,568
2018-03-06T07:34:54.323Z,576
2018-03-06T07:35:54.314Z,584
2018-03-06T07:36:54.320Z,596
2018-03-06T07:37:53.770Z,608
2018-03-06T07:38:54.068Z,620
2018-03-06T07:39:53.789Z,628
2018-03-06T07:40:54.369Z,640
2018-03-06T07:41:54.202Z,644
2018-03-06T07:42:54.103Z,648
2018-03-06T07:43:54.398Z,652
2018-03-06T07:44:53.839Z,652
2018-03-06T07:45:54.130Z,652
2018-03-06T07:46:53.860Z,656
2018-03-06T07:47:54.442Z,664
2018-03-06T07:48:54.476Z,672
2018-03-06T07:49:54.458Z,680
2018-03-06T07:50:53.901Z,688
2018-03-06T07:51:54.243Z,696
2018-03-06T07:52:54.203Z,712
2018-03-06T07:53:54.211Z,724
2018-03-06T07:54:53.942Z,736
2018-03-06T07:55:54.519Z,740
2018-03-06T07:56:54.292Z,744
2018-03-06T07:57:53.971Z,760
2018-03-06T07:58:54.267Z,780
2018-03-06T07:59:53.707Z,796
2018-03-06T08:00:54.566Z,808
2018-03-06T08:01:54.344Z,816
2018-03-06T08:02:54.325Z,824
2018-03-06T08:03:54.030Z,836
2018-03-06T08:04:54.326Z,844
2018-03-06T08:05:54.340Z,856
2018-03-06T08:06:54.114Z,868
2018-03-06T08:07:54.358Z,876
2018-03-06T08:08:54.361Z,880
2018-03-06T08:09:54.375Z,888
2018-03-06T08:10:54.389Z,896
2018-03-06T08:11:54.392Z,912
2018-03-06T08:12:54.691Z,928
2018-03-06T08:13:54.695Z,940
2018-03-06T08:14:54.142Z,952
2018-03-06T08:15:54.150Z,960
2018-03-06T08:16:54.448Z,976
2018-03-06T08:17:54.905Z,980
2018-03-06T08:18:54.196Z,988
2018-03-06T08:19:54.481Z,1000
2018-03-06T08:20:54.208Z,1012
2018-03-06T08:21:54.844Z,1020
2018-03-06T08:22:54.224Z,1036
2018-03-06T08:23:54.300Z,1044
2018-03-06T08:24:54.528Z,1044
2018-03-06T08:25:54.820Z,1052
2018-03-06T08:26:54.602Z,1056
2018-03-06T08:27:54.284Z,1068
2018-03-06T08:28:54.566Z,1076
2018-03-06T08:29:54.858Z,1088
2018-03-06T08:30:54.332Z,1104
2018-03-06T08:31:54.984Z,1124
2018-03-06T08:32:54.325Z,1140
2018-03-06T08:33:54.629Z,1156
2018-03-06T08:34:54.914Z,1168
2018-03-06T08:35:54.643Z,1172
2018-03-06T08:36:54.419Z,1180
2018-03-06T08:37:54.944Z,1180
2018-03-06T08:38:54.957Z,1184
2018-03-06T08:39:54.395Z,1184
2018-03-06T08:40:54.693Z,1188
2018-03-06T08:41:55.034Z,1192
2018-03-06T08:42:54.995Z,1200
2018-03-06T08:43:54.439Z,1212
2018-03-06T08:44:55.124Z,1220
2018-03-06T08:45:55.038Z,1236
2018-03-06T08:46:55.036Z,1252
2018-03-06T08:47:55.044Z,1268
2018-03-06T08:48:55.064Z,1284
2018-03-06T08:49:54.783Z,1300
2018-03-06T08:50:54.802Z,1316
2018-03-06T08:51:55.138Z,1332
2018-03-06T08:52:55.109Z,1340
2018-03-06T08:53:54.822Z,1352
2018-03-06T08:54:54.842Z,1356
2018-03-06T08:55:54.856Z,1360
2018-03-06T08:56:55.192Z,1356
2018-03-06T08:57:55.158Z,1352
2018-03-06T08:58:54.880Z,1348
2018-03-06T08:59:55.174Z,1344
2018-03-06T09:00:54.618Z,1340
2018-03-06T09:01:55.198Z,1352
2018-03-06T09:02:54.926Z,1364
2018-03-06T09:03:55.215Z,1376
2018-03-06T09:04:55.241Z,1388
2018-03-06T09:05:54.957Z,1396
2018-03-06T09:06:55.244Z,1404
2018-03-06T09:07:54.983Z,1420
2018-03-06T09:08:54.702Z,1428
2018-03-06T09:09:54.996Z,1436
2018-03-06T09:10:55.014Z,1448
2018-03-06T09:11:55.303Z,1448
2018-03-06T09:12:55.311Z,1452
2018-03-06T09:13:55.083Z,1456
2018-03-06T09:14:55.047Z,1464
2018-03-06T09:15:54.789Z,1468
2018-03-06T09:16:55.390Z,1476
2018-03-06T09:17:55.084Z,1480
2018-03-06T09:18:55.382Z,1492
2018-03-06T09:19:54.818Z,1504
2018-03-06T09:20:55.121Z,1528
2018-03-06T09:21:55.411Z,1552
2018-03-06T09:22:55.135Z,1584
2018-03-06T09:23:55.155Z,1616
2018-03-06T09:24:55.172Z,1632
2018-03-06T09:25:55.203Z,1640
2018-03-06T09:26:55.459Z,1644
2018-03-06T09:27:55.198Z,1636
2018-03-06T09:28:54.924Z,1620
2018-03-06T09:29:54.929Z,1592
2018-03-06T09:30:55.562Z,1568
2018-03-06T09:31:54.950Z,1552
2018-03-06T09:32:55.531Z,1568
2018-03-06T09:33:55.546Z,1592
2018-03-06T09:34:55.265Z,1612
2018-03-06T09:35:54.998Z,1624
2018-03-06T09:36:55.581Z,1640
2018-03-06T09:37:55.021Z,1656
2018-03-06T09:38:55.596Z,1664
2018-03-06T09:39:55.601Z,1668
2018-03-06T09:40:55.617Z,1668
2018-03-06T09:41:55.082Z,1664
2018-03-06T09:42:55.641Z,1660
2018-03-06T09:43:55.649Z,1664
2018-03-06T09:44:55.664Z,1668
2018-03-06T09:45:55.111Z,1680
2018-03-06T09:46:55.403Z,1700
2018-03-06T09:47:54.898Z,1724
2018-03-06T09:48:55.710Z,1756
2018-03-06T09:49:55.717Z,1788
2018-03-06T09:50:55.740Z,1808
2018-03-06T09:51:55.743Z,1824
2018-03-06T09:52:55.528Z,1832
2018-03-06T09:53:55.205Z,1832
2018-03-06T09:54:55.210Z,1828
2018-03-06T09:55:55.786Z,1812
2018-03-06T09:56:55.236Z,1800
2018-03-06T09:57:55.295Z,1796
2018-03-06T09:58:55.264Z,1792
2018-03-06T09:59:55.839Z,1780
2018-03-06T10:00:55.287Z,1776
2018-03-06T10:01:55.574Z,1776
2018-03-06T10:02:55.586Z,1784
2018-03-06T10:03:55.596Z,1796
2018-03-06T10:04:55.042Z,1808
2018-03-06T10:05:55.614Z,1824
2018-03-06T10:06:55.902Z,1824
2018-03-06T10:07:55.921Z,1820
2018-03-06T10:08:55.933Z,1812
2018-03-06T10:09:55.665Z,1812
2018-03-06T10:10:55.968Z,1808
2018-03-06T10:11:55.968Z,1808
2018-03-06T10:12:55.745Z,1804
2018-03-06T10:13:55.989Z,1812
2018-03-06T10:14:55.724Z,1824
2018-03-06T10:15:55.170Z,1840
2018-03-06T10:16:56.064Z,1856
2018-03-06T10:17:56.043Z,1876
2018-03-06T10:18:55.488Z,1892
2018-03-06T10:19:55.772Z,1904
2018-03-06T10:20:56.073Z,1912
2018-03-06T10:21:56.087Z,1924
2018-03-06T10:22:55.252Z,1936
2018-03-06T10:23:55.933Z,1940
2018-03-06T10:24:56.124Z,1936
2018-03-06T10:25:55.846Z,1924
2018-03-06T10:26:56.155Z,1908
2018-03-06T10:27:55.883Z,1900
2018-03-06T10:28:55.883Z,1896
2018-03-06T10:29:55.618Z,1900
2018-03-06T10:30:55.628Z,1904
2018-03-06T10:31:55.920Z,1920
2018-03-06T10:32:55.657Z,1944
2018-03-06T10:33:55.959Z,1980
2018-03-06T10:34:56.253Z,2012
2018-03-06T10:35:56.255Z,2044
2018-03-06T10:36:56.273Z,2072
2018-03-06T10:37:56.003Z,2088
2018-03-06T10:38:55.775Z,2112
2018-03-06T10:39:55.736Z,2144
2018-03-06T10:40:56.315Z,2180
2018-03-06T10:41:55.770Z,2204
2018-03-06T10:42:55.777Z,2232
2018-03-06T10:43:56.187Z,2240
2018-03-06T10:44:56.078Z,2236
2018-03-06T10:45:56.135Z,2224
2018-03-06T10:46:56.384Z,2216
2018-03-06T10:47:56.129Z,2212
2018-03-06T10:48:56.466Z,2220
2018-03-06T10:49:56.424Z,2228
2018-03-06T10:50:56.152Z,2248
2018-03-06T10:51:55.606Z,2264
2018-03-06T10:52:56.173Z,2292
2018-03-06T10:53:56.194Z,2328
2018-03-06T10:54:56.204Z,2348
2018-03-06T10:55:56.264Z,2340
2018-03-06T10:56:56.233Z,2312
2018-03-06T10:57:56.528Z,2280
2018-03-06T10:58:56.259Z,2260
2018-03-06T10:59:55.990Z,2232
2018-03-06T11:00:56.560Z,2192
2018-03-06T11:01:56.009Z,2140
2018-03-06T11:02:56.025Z,2096
2018-03-06T11:03:56.375Z,2060
2018-03-06T11:04:56.330Z,2036
2018-03-06T11:05:56.346Z,2008
2018-03-06T11:06:56.634Z,1972
2018-03-06T11:07:56.653Z,1948
2018-03-06T11:08:56.720Z,1944
2018-03-06T11:09:56.111Z,1956
2018-03-06T11:10:56.693Z,1964
2018-03-06T11:11:56.427Z,1964
2018-03-06T11:12:56.436Z,1956
2018-03-06T11:13:56.497Z,1948
2018-03-06T11:14:56.178Z,1936
2018-03-06T11:15:56.483Z,1916
2018-03-06T11:16:56.522Z,1900
2018-03-06T11:17:56.499Z,1884
2018-03-06T11:18:56.566Z,1868
2018-03-06T11:19:56.523Z,1868
2018-03-06T11:20:56.530Z,1860
2018-03-06T11:21:56.836Z,1864
2018-03-06T11:22:56.844Z,1868
2018-03-06T11:23:56.574Z,1864
2018-03-06T11:24:56.029Z,1844
2018-03-06T11:25:56.598Z,1824
2018-03-06T11:26:56.615Z,1812
2018-03-06T11:27:56.949Z,1812
2018-03-06T11:28:56.923Z,1820
2018-03-06T11:29:56.752Z,1820
2018-03-06T11:30:56.663Z,1812
2018-03-06T11:31:56.685Z,1780
2018-03-06T11:32:56.971Z,1740
2018-03-06T11:33:56.474Z,1716
2018-03-06T11:34:56.435Z,1712
2018-03-06T11:35:56.733Z,1708
2018-03-06T11:36:56.192Z,1676
2018-03-06T11:37:56.755Z,1632
2018-03-06T11:38:56.817Z,1600
2018-03-06T11:39:56.784Z,1556
2018-03-06T11:40:56.511Z,1512
2018-03-06T11:41:56.815Z,1452
2018-03-06T11:42:57.106Z,1392
2018-03-06T11:43:57.174Z,1328
2018-03-06T11:44:57.133Z,1276
2018-03-06T11:45:56.859Z,1256
2018-03-06T11:46:56.871Z,1244
2018-03-06T11:47:56.887Z,1240
2018-03-06T11:48:56.950Z,1240
2018-03-06T11:49:57.222Z,1244
2018-03-06T11:50:56.929Z,1240
2018-03-06T11:51:57.013Z,1224
2018-03-06T11:52:56.675Z,1200
2018-03-06T11:53:57.297Z,1192
2018-03-06T11:54:56.981Z,1208
2018-03-06T11:55:57.040Z,1216
2018-03-06T11:56:57.296Z,1208
2018-03-06T11:57:57.026Z,1204
2018-03-06T11:58:57.365Z,1200
2018-03-06T11:59:57.048Z,1192
2018-03-06T12:00:57.353Z,1184
2018-03-06T12:01:57.156Z,1180
2018-03-06T12:02:57.088Z,1168
2018-03-06T12:03:57.507Z,1168
2018-03-06T12:04:57.393Z,1160
2018-03-06T12:05:56.850Z,1124
2018-03-06T12:06:56.859Z,1124
2018-03-06T12:07:57.154Z,1148
2018-03-06T12:08:57.458Z,1144
2018-03-06T12:09:57.201Z,1112
2018-03-06T12:10:57.478Z,1088
2018-03-06T12:11:57.498Z,1092
2018-03-06T12:12:57.232Z,1096
2018-03-06T12:13:57.234Z,1120
2018-03-06T12:14:57.015Z,1144
2018-03-06T12:15:57.269Z,1140
2018-03-06T12:16:57.576Z,1096
2018-03-06T12:17:57.569Z,1048
2018-03-06T12:18:57.301Z,1016
2018-03-06T12:19:57.602Z,968
2018-03-06T12:20:57.329Z,920
2018-03-06T12:21:57.622Z,888
2018-03-06T12:22:57.358Z,868
2018-03-06T12:23:57.853Z,848
2018-03-06T12:24:57.153Z,844
2018-03-06T12:25:57.395Z,836
2018-03-06T12:26:57.704Z,812
2018-03-06T12:27:57.418Z,804
2018-03-06T12:28:57.718Z,784
2018-03-06T12:29:57.442Z,760
2018-03-06T12:30:57.179Z,752
2018-03-06T12:31:57.470Z,736
2018-03-06T12:32:57.497Z,712
2018-03-06T12:33:57.501Z,704
2018-03-06T12:34:57.800Z,708
2018-03-06T12:35:57.532Z,708
2018-03-06T12:36:57.328Z,692
2018-03-06T12:37:57.552Z,688
2018-03-06T12:38:57.850Z,712
2018-03-06T12:39:57.637Z,732
2018-03-06T12:40:57.878Z,740
2018-03-06T12:41:57.324Z,756
2018-03-06T12:42:57.986Z,720
2018-03-06T12:43:57.073Z,744
2018-03-06T12:44:57.831Z,756
2018-03-06T12:45:57.943Z,784
2018-03-06T12:46:57.674Z,792
2018-03-06T12:47:57.409Z,800
2018-03-06T12:48:57.421Z,808
2018-03-06T12:49:57.428Z,776
2018-03-06T12:50:57.728Z,732
2018-03-06T12:51:58.042Z,704
2018-03-06T12:52:58.039Z,648
2018-03-06T12:53:57.768Z,600
2018-03-06T12:54:57.996Z,580
2018-03-06T12:55:57.511Z,552
2018-03-06T12:56:57.529Z,568
2018-03-06T12:57:58.146Z,608
2018-03-06T12:58:57.840Z,648
2018-03-06T12:59:58.134Z,672
2018-03-06T13:00:58.185Z,652
2018-03-06T13:01:58.153Z,652
2018-03-06T13:02:57.608Z,648
2018-03-06T13:03:57.898Z,652
2018-03-06T13:04:58.200Z,656
2018-03-06T13:05:57.642Z,660
2018-03-06T13:06:57.943Z,684
2018-03-06T13:07:57.673Z,680
2018-03-06T13:08:57.683Z,664
2018-03-06T13:09:58.316Z,584
2018-03-06T13:10:58.276Z,616
2018-03-06T13:11:58.010Z,620
2018-03-06T13:12:58.306Z,536
2018-03-06T13:13:58.036Z,532
2018-03-06T13:14:58.338Z,536
2018-03-06T13:15:58.061Z,560
2018-03-06T13:16:58.073Z,564
2018-03-06T13:17:57.519Z,576
2018-03-06T13:18:58.385Z,572
2018-03-06T13:19:58.398Z,552
2018-03-06T13:20:58.124Z,576
2018-03-06T13:21:58.133Z,576
2018-03-06T13:22:57.868Z,576
2018-03-06T13:23:57.604Z,560
2018-03-06T13:24:57.896Z,552
2018-03-06T13:25:58.188Z,516
2018-03-06T13:26:58.208Z,496
2018-03-06T13:27:58.215Z,460
2018-03-06T13:28:57.947Z,452
2018-03-06T13:29:58.573Z,412
2018-03-06T13:30:58.537Z,392
2018-03-06T13:31:58.273Z,416
2018-03-06T13:32:58.283Z,440
2018-03-06T13:33:58.333Z,452
2018-03-06T13:34:58.304Z,444
2018-03-06T13:35:58.325Z,440
2018-03-06T13:36:58.070Z,428
2018-03-06T13:37:58.352Z,408
2018-03-06T13:38:57.791Z,388
2018-03-06T13:39:58.190Z,356
2018-03-06T13:40:58.666Z,336
2018-03-06T13:41:58.194Z,328
2018-03-06T13:42:58.412Z,336
2018-03-06T13:43:58.142Z,332
2018-03-06T13:44:58.543Z,328
2018-03-06T13:45:58.455Z,324
2018-03-06T13:46:58.468Z,324
2018-03-06T13:47:58.761Z,308
2018-03-06T13:48:58.487Z,296
2018-03-06T13:49:58.551Z,292
2018-03-06T13:50:58.520Z,300
2018-03-06T13:51:58.826Z,292
2018-03-06T13:52:58.822Z,288
2018-03-06T13:53:58.552Z,280
2018-03-06T13:54:58.621Z,264
2018-03-06T13:55:58.859Z,256
2018-03-06T13:56:58.609Z,240
2018-03-06T13:57:58.609Z,224
2018-03-06T13:58:58.327Z,232
2018-03-06T13:59:58.112Z,232
2018-03-06T14:00:58.360Z,224
2018-03-06T14:01:58.658Z,220
2018-03-06T14:02:58.949Z,212